createdAt,value
2018-11-28T00:01:12.405Z,1.70
2018-11-28T00:03:41.854Z,1.40
2018-11-28T00:06:11.325Z,1.63
2018-11-28T00:08:40.893Z,1.60
2018-11-28T00:11:10.414Z,2.17
2018-11-28T00:13:40.150Z,1.70
2018-11-28T00:16:09.925Z,1.80
2018-11-28T00:18:39.432Z,1.70
2018-11-28T00:21:08.714Z,1.50
2018-11-28T00:23:38.414Z,1.50
2018-11-28T00:26:08.064Z,1.60
2018-11-28T00:28:37.417Z,1.53
2018-11-28T00:31:06.879Z,1.40
2018-11-28T00:33:36.520Z,1.60
2018-11-28T00:36:06.191Z,1.47
2018-11-28T00:38:35.584Z,1.60
2018-11-28T00:41:04.988Z,1.70
2018-11-28T00:43:34.516Z,1.73
2018-11-28T00:46:03.928Z,1.60
2018-11-28T00:48:33.478Z,2.00
2018-11-28T00:51:03.108Z,1.43
2018-11-28T00:53:32.675Z,1.60
2018-11-28T00:56:02.185Z,1.83
2018-11-28T00:58:31.642Z,1.33
2018-11-28T01:01:01.013Z,1.60
2018-11-28T01:03:30.719Z,2.10
2018-11-28T01:06:00.151Z,2.10
2018-11-28T01:08:29.527Z,1.93
2018-11-28T01:10:59.242Z,2.53
2018-11-28T01:13:28.723Z,1.67
2018-11-28T01:15:58.110Z,1.70
2018-11-28T01:18:27.394Z,1.83
2018-11-28T01:20:56.833Z,1.40
2018-11-28T01:23:26.150Z,1.50
2018-11-28T01:25:55.567Z,1.17
2018-11-28T01:28:25.268Z,1.20
2018-11-28T01:30:54.883Z,1.10
2018-11-28T01:33:24.304Z,2.23
2018-11-28T01:35:53.577Z,1.70
2018-11-28T01:38:23.294Z,0.80
2018-11-28T01:40:52.841Z,1.10
2018-11-28T01:43:22.169Z,1.20
2018-11-28T01:45:51.409Z,2.20
2018-11-28T01:48:20.971Z,1.20
2018-11-28T01:50:50.671Z,0.80
2018-11-28T01:53:20.174Z,0.60
2018-11-28T01:55:49.563Z,0.77
2018-11-28T01:58:19.008Z,1.10
2018-11-28T02:00:48.409Z,1.23
2018-11-28T02:03:17.986Z,1.27
2018-11-28T02:05:47.311Z,1.10
2018-11-28T02:08:16.561Z,1.30
2018-11-28T02:10:45.981Z,0.93
2018-11-28T02:13:15.572Z,0.97
2018-11-28T02:15:45.077Z,0.93
2018-11-28T02:18:14.556Z,0.90
2018-11-28T02:20:43.895Z,1.00
2018-11-28T02:23:13.363Z,0.77
2018-11-28T02:25:42.811Z,0.80
2018-11-28T02:28:12.296Z,0.60
2018-11-28T02:30:41.647Z,0.87
2018-11-28T02:33:10.998Z,0.90
2018-11-28T02:35:40.572Z,1.40
2018-11-28T02:38:10.018Z,1.50
2018-11-28T02:40:39.226Z,1.03
2018-11-28T02:43:08.620Z,1.10
2018-11-28T02:45:38.186Z,1.00
2018-11-28T02:48:07.812Z,1.50
2018-11-28T02:50:37.232Z,1.50
2018-11-28T02:53:06.662Z,1.40
2018-11-28T02:55:36.093Z,1.30
2018-11-28T02:58:05.596Z,1.27
2018-11-28T03:00:35.274Z,1.30
2018-11-28T03:03:04.757Z,1.70
2018-11-28T03:05:34.210Z,1.50
2018-11-28T03:08:04.175Z,1.40
2018-11-28T03:10:33.596Z,2.20
2018-11-28T03:13:03.221Z,1.87
2018-11-28T03:15:36.207Z,1.60
2018-11-28T03:18:05.836Z,1.60
2018-11-28T03:20:35.476Z,1.83
2018-11-28T03:23:04.908Z,1.77
2018-11-28T03:25:34.327Z,1.90
2018-11-28T03:28:03.795Z,1.50
2018-11-28T03:30:33.248Z,1.70
2018-11-28T03:33:02.808Z,1.70
2018-11-28T03:35:32.177Z,1.70
2018-11-28T03:38:01.793Z,1.57
2018-11-28T03:40:31.391Z,1.77
2018-11-28T03:43:01.003Z,2.15
2018-11-28T03:45:30.467Z,1.90
2018-11-28T03:47:59.842Z,2.00
2018-11-28T03:50:29.215Z,1.47
2018-11-28T03:52:58.822Z,1.60
2018-11-28T03:55:28.291Z,1.60
2018-11-28T03:57:57.728Z,1.97
2018-11-28T04:00:27.159Z,1.40
2018-11-28T04:02:56.643Z,1.43
2018-11-28T04:05:26.134Z,1.40
2018-11-28T04:07:55.517Z,1.50
2018-11-28T04:10:24.987Z,1.33
2018-11-28T04:12:54.469Z,1.10
2018-11-28T04:15:24.114Z,1.30
2018-11-28T04:17:53.908Z,0.90
2018-11-28T04:20:23.790Z,1.10
2018-11-28T04:22:53.195Z,1.10
2018-11-28T04:25:23.550Z,1.00
2018-11-28T04:27:53.186Z,0.80
2018-11-28T04:30:23.468Z,0.83
2018-11-28T04:32:54.329Z,1.00
2018-11-28T04:35:23.731Z,1.17
2018-11-28T04:37:53.321Z,1.00
2018-11-28T04:40:22.958Z,0.90
2018-11-28T04:42:52.354Z,0.93
2018-11-28T04:45:23.485Z,0.90
2018-11-28T04:47:54.409Z,0.93
2018-11-28T04:50:24.121Z,1.00
2018-11-28T04:52:53.764Z,1.20
2018-11-28T04:55:23.114Z,1.40
2018-11-28T04:57:52.854Z,1.37
2018-11-28T05:00:23.362Z,1.73
2018-11-28T05:02:52.987Z,1.80
2018-11-28T05:05:22.914Z,1.70
2018-11-28T05:07:52.938Z,1.93
2018-11-28T05:10:24.212Z,1.70
2018-11-28T05:13:00.972Z,1.30
2018-11-28T05:15:32.344Z,1.93
2018-11-28T05:18:01.747Z,2.10
2018-11-28T05:20:32.895Z,1.80
2018-11-28T05:23:02.824Z,2.27
2018-11-28T05:25:32.678Z,2.30
2018-11-28T05:28:08.726Z,2.50
2018-11-28T05:30:38.296Z,2.00
2018-11-28T05:33:08.368Z,2.20
2018-11-28T05:35:39.544Z,2.23
2018-11-28T05:38:13.778Z,2.07
2018-11-28T05:40:44.299Z,3.00
2018-11-28T05:43:13.652Z,3.10
2018-11-28T05:45:43.275Z,3.40
2018-11-28T05:48:12.707Z,3.07
2018-11-28T05:50:42.248Z,3.50
2018-11-28T05:53:11.633Z,2.80
2018-11-28T05:55:41.275Z,3.50
2018-11-28T05:58:10.767Z,2.93
2018-11-28T06:00:41.373Z,2.83
2018-11-28T06:03:12.077Z,3.60
2018-11-28T06:05:42.287Z,2.70
2018-11-28T06:08:11.719Z,3.07
2018-11-28T06:10:41.417Z,2.37
2018-11-28T06:13:11.186Z,2.30
2018-11-28T06:15:40.542Z,2.03
2018-11-28T06:18:10.300Z,2.00
2018-11-28T06:20:40.040Z,1.63
2018-11-28T06:23:09.528Z,1.97
2018-11-28T06:25:39.010Z,2.80
2018-11-28T06:28:08.517Z,2.43
2018-11-28T06:30:37.937Z,1.40
2018-11-28T06:33:07.378Z,1.90
2018-11-28T06:35:36.870Z,1.37
2018-11-28T06:38:06.332Z,2.03
2018-11-28T06:40:35.955Z,2.03
2018-11-28T06:43:05.538Z,1.73
2018-11-28T06:45:35.062Z,2.10
2018-11-28T06:48:04.437Z,2.53
2018-11-28T06:50:33.821Z,2.43
2018-11-28T06:53:03.230Z,2.50
2018-11-28T06:55:32.721Z,1.63
2018-11-28T06:58:02.182Z,1.63
2018-11-28T07:00:31.782Z,1.13
2018-11-28T07:03:02.215Z,1.03
2018-11-28T07:05:31.599Z,1.03
2018-11-28T07:08:00.910Z,0.60
2018-11-28T07:10:30.322Z,0.60
2018-11-28T07:12:59.949Z,0.90
2018-11-28T07:15:29.484Z,1.00
2018-11-28T07:18:08.453Z,1.47
2018-11-28T07:20:37.750Z,1.10
2018-11-28T07:23:07.711Z,1.23
2018-11-28T07:25:37.258Z,1.10
2018-11-28T07:28:07.153Z,1.40
2018-11-28T07:30:37.780Z,1.30
2018-11-28T07:33:06.390Z,1.50
2018-11-28T07:35:35.866Z,1.30
2018-11-28T07:38:11.621Z,1.67
2018-11-28T07:40:41.390Z,1.50
2018-11-28T07:43:12.584Z,1.80
2018-11-28T07:45:43.586Z,1.83
2018-11-28T07:48:13.141Z,1.93
2018-11-28T07:50:42.781Z,2.70
2018-11-28T07:53:12.262Z,2.63
2018-11-28T07:55:42.459Z,3.70
2018-11-28T07:58:11.785Z,3.27
2018-11-28T08:00:41.098Z,3.27
2018-11-28T08:03:10.849Z,2.93
2018-11-28T08:05:40.693Z,2.70
2018-11-28T08:08:11.832Z,2.50
2018-11-28T08:10:41.195Z,3.00
2018-11-28T08:13:10.855Z,2.80
2018-11-28T08:15:40.422Z,2.73
2018-11-28T08:18:09.909Z,3.40
2018-11-28T08:20:39.303Z,3.60
2018-11-28T08:23:08.886Z,3.03
2018-11-28T08:25:38.312Z,3.03
2018-11-28T08:28:07.913Z,3.00
2018-11-28T08:30:37.384Z,3.70
2018-11-28T08:33:06.953Z,4.57
2018-11-28T08:35:36.385Z,3.60
2018-11-28T08:38:05.740Z,3.20
2018-11-28T08:40:35.127Z,2.70
2018-11-28T08:43:04.620Z,3.10
2018-11-28T08:45:34.172Z,3.33
2018-11-28T08:48:03.767Z,2.97
2018-11-28T08:50:34.381Z,2.77
2018-11-28T08:53:03.772Z,2.17
2018-11-28T08:55:33.294Z,2.60
2018-11-28T08:58:02.830Z,2.23
2018-11-28T09:00:32.386Z,2.57
2018-11-28T09:03:01.993Z,2.40
2018-11-28T09:05:31.566Z,3.50
2018-11-28T09:08:01.027Z,2.97
2018-11-28T09:10:30.387Z,3.20
2018-11-28T09:13:03.994Z,3.40
2018-11-28T09:15:31.244Z,2.60
2018-11-28T09:17:59.779Z,2.53
2018-11-28T09:20:29.132Z,2.17
2018-11-28T09:22:58.803Z,2.10
2018-11-28T09:25:28.323Z,2.30
2018-11-28T09:27:59.357Z,2.03
2018-11-28T09:30:28.693Z,2.27
2018-11-28T09:32:58.817Z,2.50
2018-11-28T09:35:28.544Z,3.03
2018-11-28T09:37:58.034Z,2.30
2018-11-28T09:40:28.009Z,2.70
2018-11-28T09:42:59.177Z,2.13
2018-11-28T09:45:28.932Z,2.00
2018-11-28T09:47:58.400Z,2.00
2018-11-28T09:50:27.997Z,1.53
2018-11-28T09:52:57.661Z,1.90
2018-11-28T09:55:27.833Z,1.90
2018-11-28T09:57:57.773Z,1.60
2018-11-28T10:00:28.043Z,2.00
2018-11-28T10:02:59.371Z,2.07
2018-11-28T10:05:30.797Z,1.93
2018-11-28T10:08:00.209Z,2.10
2018-11-28T10:10:29.642Z,1.73
2018-11-28T10:12:58.952Z,1.53
2018-11-28T10:15:35.432Z,1.77
2018-11-28T10:18:01.615Z,1.77
2018-11-28T10:20:31.093Z,1.90
2018-11-28T10:23:00.609Z,2.05
2018-11-28T10:25:30.065Z,1.70
2018-11-28T10:28:00.574Z,1.40
2018-11-28T10:30:35.903Z,2.00
2018-11-28T10:33:06.629Z,1.60
2018-11-28T10:35:36.673Z,1.83
2018-11-28T10:38:06.594Z,1.70
2018-11-28T10:40:36.374Z,1.70
2018-11-28T10:43:06.276Z,2.00
2018-11-28T10:45:35.854Z,1.97
2018-11-28T10:48:05.458Z,2.40
2018-11-28T10:50:35.367Z,2.50
2018-11-28T10:53:04.976Z,2.70
2018-11-28T10:55:34.421Z,2.57
2018-11-28T10:58:03.948Z,2.50
2018-11-28T11:00:39.100Z,2.57
2018-11-28T16:33:33.499Z,2.60
2018-11-28T16:36:03.391Z,7.47
2018-11-28T16:38:32.908Z,9.97
2018-11-28T16:41:02.724Z,6.50
2018-11-28T16:43:32.110Z,6.90
2018-11-28T16:46:01.532Z,6.57
2018-11-28T16:48:30.851Z,6.20
2018-11-28T16:51:00.626Z,7.17
2018-11-28T16:53:30.190Z,7.17
2018-11-28T16:55:59.550Z,7.67
2018-11-28T16:58:28.807Z,7.60
2018-11-28T17:00:57.873Z,7.40
2018-11-28T17:03:27.040Z,6.80
2018-11-28T17:05:56.242Z,7.47
2018-11-28T17:08:25.761Z,7.30
2018-11-28T17:10:55.308Z,6.83
2018-11-28T17:13:24.445Z,8.10
2018-11-28T17:15:53.967Z,8.10
2018-11-28T17:18:23.175Z,7.47
2018-11-28T17:20:52.302Z,7.63
2018-11-28T17:23:21.479Z,7.73
2018-11-28T17:25:50.934Z,7.63
2018-11-28T17:28:20.519Z,7.47
2018-11-28T17:30:49.970Z,7.43
2018-11-28T17:33:19.582Z,7.60
2018-11-28T17:35:48.940Z,7.07
2018-11-28T17:38:18.465Z,7.40
2018-11-28T17:40:47.739Z,7.47
2018-11-28T17:43:16.777Z,7.67
